Time;durP1;ratioP1;P1;durP2;ratioP2;P2;SDS_P1;SDS_P2;PMS_P1;PMS_P2;Temp;Humidity;BMP_temperature;BMP_pressure;BME280_temperature;BME280_humidity;BME280_pressure;Samples;Min_cycle;Max_cycle;Signal;HPM_P1;HPM_P2
2022/09/11 00:00:59;;;;;;;43.25;24.27;;;14.10;99.90;;;;;;5041008;28;20041;-68
2022/09/11 00:03:26;;;;;;;44.20;24.15;;;14.20;99.90;;;;;;5043381;28;20112;-67
2022/09/11 00:05:52;;;;;;;39.22;23.48;;;14.10;99.90;;;;;;5042429;28;20079;-68
2022/09/11 00:08:20;;;;;;;43.42;25.27;;;14.10;99.90;;;;;;5040017;28;20025;-68
2022/09/11 00:10:47;;;;;;;53.33;25.50;;;14.10;99.90;;;;;;5039827;28;20052;-68
2022/09/11 00:13:20;;;;;;;49.42;25.95;;;14.00;99.90;;;;;;5038931;28;20124;-68
2022/09/11 00:15:47;;;;;;;49.17;25.98;;;14.00;99.90;;;;;;5041737;28;20053;-68
2022/09/11 00:18:16;;;;;;;47.83;25.90;;;14.00;99.90;;;;;;5036193;28;20037;-68
2022/09/11 00:20:53;;;;;;;54.05;26.77;;;13.90;99.90;;;;;;5040204;28;20397;-68
2022/09/11 00:23:20;;;;;;;47.42;25.83;;;14.00;99.90;;;;;;5037101;28;20055;-68
2022/09/11 00:25:47;;;;;;;43.67;25.10;;;13.90;99.90;;;;;;5040474;28;20249;-68
2022/09/11 00:28:15;;;;;;;46.03;25.50;;;13.90;99.90;;;;;;5039774;28;20175;-68
2022/09/11 00:30:43;;;;;;;46.72;26.85;;;13.90;99.90;;;;;;5041340;28;20041;-68
2022/09/11 00:33:14;;;;;;;44.75;24.90;;;13.80;99.90;;;;;;5010133;28;20041;-68
2022/09/11 00:35:41;;;;;;;44.70;24.98;;;13.80;99.90;;;;;;5041366;28;20065;-68
2022/09/11 00:38:07;;;;;;;40.13;24.33;;;13.80;99.90;;;;;;5021922;28;20114;-68
2022/09/11 00:40:44;;;;;;;43.63;24.90;;;13.80;99.90;;;;;;5026759;28;20037;-68
2022/09/11 00:43:13;;;;;;;47.17;25.98;;;13.80;99.90;;;;;;5038817;28;20041;-68
2022/09/11 00:45:39;;;;;;;48.40;25.52;;;13.80;99.90;;;;;;5038590;28;20056;-68
2022/09/11 00:48:08;;;;;;;44.13;24.88;;;13.80;99.90;;;;;;5023865;28;20490;-68
2022/09/11 00:50:34;;;;;;;44.20;24.00;;;13.80;99.90;;;;;;5028096;28;20045;-68
2022/09/11 00:53:06;;;;;;;41.90;24.45;;;13.80;99.90;;;;;;5039257;28;20102;-68
2022/09/11 00:55:36;;;;;;;43.40;24.52;;;13.70;99.90;;;;;;5034549;28;20045;-68
2022/09/11 00:58:11;;;;;;;48.25;26.05;;;13.70;99.90;;;;;;5035070;28;20106;-68
2022/09/11 01:00:40;;;;;;;45.60;25.00;;;13.70;99.90;;;;;;5041848;28;20044;-68
2022/09/11 01:03:06;;;;;;;42.25;26.52;;;13.70;99.90;;;;;;5026358;28;20440;-67
2022/09/11 01:05:34;;;;;;;48.85;25.67;;;13.70;99.90;;;;;;5040901;28;20029;-68
2022/09/11 01:08:02;;;;;;;48.35;25.67;;;13.60;99.90;;;;;;5037350;28;20386;-68
2022/09/11 01:11:06;;;;;;;49.55;26.50;;;13.60;99.90;;;;;;5021571;28;20406;-68
2022/09/11 01:13:37;;;;;;;43.95;24.77;;;13.60;99.90;;;;;;5040801;28;20536;-67
2022/09/11 01:16:18;;;;;;;45.55;25.20;;;13.50;99.90;;;;;;5039305;28;20068;-68
2022/09/11 01:18:48;;;;;;;47.70;24.65;;;13.50;99.90;;;;;;5033329;28;20037;-68
2022/09/11 01:21:59;;;;;;;43.83;25.13;;;13.50;99.90;;;;;;5034882;28;20587;-67
2022/09/11 01:25:02;;;;;;;41.33;23.08;;;13.40;99.90;;;;;;5037941;28;20033;-67
2022/09/11 01:27:49;;;;;;;40.50;23.45;;;13.40;99.90;;;;;;5037272;28;20088;-68
2022/09/11 01:30:21;;;;;;;45.53;25.27;;;13.40;99.90;;;;;;5042343;28;20041;-67
2022/09/11 01:33:10;;;;;;;48.00;25.48;;;13.40;99.90;;;;;;5023976;28;20107;-68
2022/09/11 01:35:57;;;;;;;45.33;26.33;;;13.40;99.90;;;;;;5018527;28;20303;-68
2022/09/11 01:38:51;;;;;;;45.70;26.23;;;13.40;99.90;;;;;;5035673;28;20068;-68
2022/09/11 01:41:47;;;;;;;45.95;25.02;;;13.40;99.90;;;;;;5037586;28;20083;-68
2022/09/11 01:44:34;;;;;;;37.47;22.08;;;13.30;99.90;;;;;;5035846;28;20033;-68
2022/09/11 01:47:02;;;;;;;46.03;24.73;;;13.30;99.90;;;;;;5034970;28;20109;-68
2022/09/11 01:49:37;;;;;;;43.75;23.80;;;13.30;99.90;;;;;;5037763;28;20029;-68
2022/09/11 01:52:08;;;;;;;43.92;24.27;;;13.30;99.90;;;;;;5037638;28;20047;-68
2022/09/11 01:54:41;;;;;;;40.65;23.02;;;13.30;99.90;;;;;;5041205;28;20044;-68
2022/09/11 01:57:21;;;;;;;40.45;23.08;;;13.30;99.90;;;;;;5039265;28;20099;-68
2022/09/11 01:59:52;;;;;;;34.90;21.98;;;13.30;99.90;;;;;;5039167;28;21083;-68
2022/09/11 02:02:26;;;;;;;36.95;22.55;;;13.30;99.90;;;;;;5040112;28;20044;-68
2022/09/11 02:05:01;;;;;;;42.67;24.38;;;13.20;99.90;;;;;;5022390;28;20060;-68
2022/09/11 02:07:42;;;;;;;36.63;21.63;;;13.20;99.90;;;;;;5020295;28;20121;-68
2022/09/11 02:10:23;;;;;;;41.42;23.80;;;13.20;99.90;;;;;;5036350;28;20088;-68
2022/09/11 02:13:35;;;;;;;39.67;23.42;;;13.20;99.90;;;;;;5037922;28;20076;-68
2022/09/11 02:16:15;;;;;;;39.38;22.80;;;13.20;99.90;;;;;;5040179;28;20051;-68
2022/09/11 02:18:43;;;;;;;38.28;22.75;;;13.20;99.90;;;;;;5040489;28;20265;-67
2022/09/11 02:21:09;;;;;;;38.55;22.83;;;13.20;99.90;;;;;;5043082;28;20103;-68
2022/09/11 02:23:35;;;;;;;37.15;23.48;;;13.20;99.90;;;;;;5043227;28;20036;-68
2022/09/11 02:26:02;;;;;;;37.70;22.70;;;13.20;99.90;;;;;;5025675;28;20044;-67
2022/09/11 02:28:28;;;;;;;37.22;22.73;;;13.10;99.90;;;;;;5039017;28;20049;-68
2022/09/11 02:30:54;;;;;;;41.60;23.70;;;13.10;99.90;;;;;;5040554;28;20044;-67
2022/09/11 02:33:35;;;;;;;36.10;22.77;;;13.10;99.90;;;;;;5040745;28;20041;-68
2022/09/11 02:36:29;;;;;;;36.05;21.50;;;13.10;99.90;;;;;;5044827;28;20139;-68
2022/09/11 02:39:08;;;;;;;38.08;22.45;;;13.10;99.90;;;;;;5023336;28;20048;-68
2022/09/11 02:41:47;;;;;;;35.72;21.95;;;13.10;99.90;;;;;;5025573;28;20544;-68
2022/09/11 02:44:31;;;;;;;35.70;21.25;;;13.10;99.90;;;;;;5037249;28;20041;-68
2022/09/11 02:47:30;;;;;;;31.95;20.13;;;13.00;99.90;;;;;;5040700;28;20045;-68
2022/09/11 02:50:14;;;;;;;33.55;21.05;;;13.00;99.90;;;;;;5045484;28;20107;-68
2022/09/11 02:53:04;;;;;;;31.58;19.35;;;13.00;99.90;;;;;;5043465;28;20041;-68
2022/09/11 02:55:40;;;;;;;33.13;18.92;;;13.00;99.90;;;;;;5021921;28;20417;-68
2022/09/11 02:58:20;;;;;;;34.30;20.52;;;12.90;99.90;;;;;;5043717;28;20116;-67
2022/09/11 03:00:46;;;;;;;29.73;18.67;;;13.00;99.90;;;;;;5026954;28;20040;-68
2022/09/11 03:03:13;;;;;;;27.90;18.20;;;12.90;99.90;;;;;;5010657;28;20509;-68
2022/09/11 03:05:40;;;;;;;31.92;18.50;;;12.90;99.90;;;;;;5026667;28;20037;-68
2022/09/11 03:08:06;;;;;;;34.25;19.52;;;12.80;99.90;;;;;;5042852;28;20379;-68
2022/09/11 03:10:33;;;;;;;28.80;19.02;;;12.90;99.90;;;;;;5040949;28;20049;-68
2022/09/11 03:12:59;;;;;;;32.58;18.80;;;12.80;99.90;;;;;;5040001;28;20091;-67
2022/09/11 03:15:25;;;;;;;29.85;19.35;;;12.80;99.90;;;;;;5038166;28;20506;-68
2022/09/11 03:17:51;;;;;;;29.27;19.10;;;12.80;99.90;;;;;;5024205;28;20803;-68
2022/09/11 03:20:18;;;;;;;27.75;18.08;;;12.80;99.90;;;;;;5041602;28;20053;-67
2022/09/11 03:22:43;;;;;;;26.63;17.75;;;12.80;99.90;;;;;;5024974;28;20037;-67
2022/09/11 03:25:10;;;;;;;30.55;17.73;;;12.70;99.90;;;;;;5007241;28;20043;-68
2022/09/11 03:27:38;;;;;;;26.63;17.10;;;12.70;99.90;;;;;;5040366;28;20089;-67
2022/09/11 03:30:05;;;;;;;29.52;19.27;;;12.70;99.90;;;;;;5038784;28;20057;-68
2022/09/11 03:32:31;;;;;;;29.58;18.15;;;12.70;99.90;;;;;;5058668;28;20387;-68
2022/09/11 03:34:57;;;;;;;27.75;18.35;;;12.70;99.90;;;;;;5025595;28;20053;-67
2022/09/11 03:37:23;;;;;;;26.77;17.70;;;12.70;99.90;;;;;;5026962;28;20040;-68
2022/09/11 03:39:49;;;;;;;29.02;18.05;;;12.60;99.90;;;;;;5039640;28;21724;-68
2022/09/11 03:42:14;;;;;;;27.85;18.30;;;12.60;99.90;;;;;;5020254;28;20136;-68
2022/09/11 03:44:41;;;;;;;33.40;19.55;;;12.60;99.90;;;;;;5026568;28;20076;-67
2022/09/11 03:47:07;;;;;;;31.75;19.10;;;12.60;99.90;;;;;;5041679;28;20041;-68
2022/09/11 03:49:33;;;;;;;31.30;17.73;;;12.60;99.90;;;;;;5005026;28;20040;-67
2022/09/11 03:52:00;;;;;;;30.30;19.13;;;12.60;99.90;;;;;;5042627;28;20053;-68
2022/09/11 03:54:27;;;;;;;27.75;17.73;;;12.60;99.90;;;;;;5026100;28;20044;-67
2022/09/11 03:56:53;;;;;;;26.55;16.92;;;12.60;99.90;;;;;;5043273;28;20044;-68
2022/09/11 03:59:19;;;;;;;26.58;18.00;;;12.70;99.90;;;;;;5042749;28;20049;-68
2022/09/11 04:01:45;;;;;;;25.73;17.55;;;12.60;99.90;;;;;;5039462;28;20120;-68
2022/09/11 04:04:11;;;;;;;25.13;17.27;;;12.60;99.90;;;;;;5043170;28;20032;-68
2022/09/11 04:06:37;;;;;;;28.40;18.15;;;12.60;99.90;;;;;;5039595;28;20040;-67
2022/09/11 04:09:03;;;;;;;24.77;16.42;;;12.60;99.90;;;;;;5025513;28;20038;-67
2022/09/11 04:11:30;;;;;;;25.02;16.23;;;12.60;99.90;;;;;;5037850;28;20496;-67
2022/09/11 04:13:56;;;;;;;26.63;17.20;;;12.60;99.90;;;;;;5038687;28;20053;-67
2022/09/11 04:16:21;;;;;;;22.42;16.60;;;12.60;99.90;;;;;;5039757;28;20048;-68
2022/09/11 04:18:48;;;;;;;24.38;16.70;;;12.60;99.90;;;;;;5042586;28;20479;-67
2022/09/11 04:21:16;;;;;;;25.83;16.88;;;12.60;99.90;;;;;;5026870;28;20041;-67
2022/09/11 04:23:44;;;;;;;23.05;15.57;;;12.60;99.90;;;;;;5039539;28;20052;-68
2022/09/11 04:26:15;;;;;;;27.10;16.60;;;12.60;99.90;;;;;;5023360;28;20120;-67
2022/09/11 04:28:41;;;;;;;22.80;15.87;;;12.60;99.90;;;;;;5040686;28;20040;-68
2022/09/11 04:31:07;;;;;;;22.95;15.73;;;12.60;99.90;;;;;;5024723;28;20537;-67
2022/09/11 04:33:38;;;;;;;22.02;16.38;;;12.50;99.90;;;;;;5040887;28;20045;-68
2022/09/11 04:36:09;;;;;;;26.15;16.33;;;12.60;99.90;;;;;;5025343;28;20060;-68
2022/09/11 04:38:35;;;;;;;23.70;16.65;;;12.50;99.90;;;;;;5022884;28;20032;-67
2022/09/11 04:41:03;;;;;;;24.48;16.23;;;12.50;99.90;;;;;;5025591;28;20138;-67
2022/09/11 04:43:30;;;;;;;23.45;15.73;;;12.50;99.90;;;;;;5029368;28;20030;-68
2022/09/11 04:46:09;;;;;;;24.20;16.50;;;12.50;99.90;;;;;;5043569;28;20056;-67
2022/09/11 04:48:37;;;;;;;24.98;16.65;;;12.50;99.90;;;;;;5043262;28;20041;-68
2022/09/11 04:51:05;;;;;;;24.95;16.40;;;12.50;99.90;;;;;;5028857;28;20049;-67
2022/09/11 04:53:32;;;;;;;24.63;16.15;;;12.40;99.90;;;;;;5044478;28;20037;-67
2022/09/11 04:56:12;;;;;;;24.48;16.45;;;12.40;99.90;;;;;;5044467;28;20076;-68
2022/09/11 04:58:38;;;;;;;24.40;16.45;;;12.40;99.90;;;;;;5044000;28;20052;-68
2022/09/11 05:01:09;;;;;;;23.50;16.30;;;12.50;99.90;;;;;;5045363;28;20041;-67
2022/09/11 05:03:35;;;;;;;25.50;16.63;;;12.40;99.90;;;;;;5046085;28;20029;-68
2022/09/11 05:06:09;;;;;;;24.10;16.35;;;12.40;99.90;;;;;;5026860;28;20587;-68
2022/09/11 05:08:35;;;;;;;25.92;16.65;;;12.40;99.90;;;;;;5041669;28;20112;-68
2022/09/11 05:11:04;;;;;;;26.38;17.92;;;12.40;99.90;;;;;;5029211;28;20047;-68
2022/09/11 05:13:33;;;;;;;27.38;17.73;;;12.40;99.90;;;;;;5047680;28;20124;-67
2022/09/11 05:16:10;;;;;;;26.52;16.92;;;12.40;99.90;;;;;;5041235;28;20045;-67
2022/09/11 05:18:41;;;;;;;25.20;16.10;;;12.40;99.90;;;;;;5046004;28;20029;-67
2022/09/11 05:21:13;;;;;;;23.27;15.88;;;12.40;99.90;;;;;;5047829;28;20574;-67
2022/09/11 05:23:39;;;;;;;27.05;16.48;;;12.40;99.90;;;;;;5027786;28;20048;-67
2022/09/11 05:26:06;;;;;;;27.35;17.38;;;12.40;99.90;;;;;;5045682;28;20474;-68
2022/09/11 05:28:33;;;;;;;24.35;17.65;;;12.40;99.90;;;;;;5026985;28;20041;-67
2022/09/11 05:30:59;;;;;;;26.60;16.55;;;12.40;99.90;;;;;;5047902;28;20036;-67
2022/09/11 05:33:26;;;;;;;23.52;16.20;;;12.40;99.90;;;;;;5046155;28;20051;-67
2022/09/11 05:35:54;;;;;;;24.85;16.23;;;12.40;99.90;;;;;;5042156;28;20056;-68
2022/09/11 05:38:21;;;;;;;25.27;16.58;;;12.40;99.90;;;;;;5027830;28;20490;-67
2022/09/11 05:40:51;;;;;;;24.75;16.73;;;12.50;99.90;;;;;;5011295;28;20045;-68
2022/09/11 05:43:18;;;;;;;26.92;16.05;;;12.50;99.90;;;;;;5044180;28;20041;-67
2022/09/11 05:45:52;;;;;;;27.88;16.85;;;12.50;99.90;;;;;;5030638;28;20041;-67
2022/09/11 05:48:18;;;;;;;26.38;16.52;;;12.50;99.90;;;;;;5041309;28;20042;-66
2022/09/11 05:50:55;;;;;;;23.15;15.52;;;12.50;99.90;;;;;;5045536;28;20510;-67
2022/09/11 05:53:22;;;;;;;19.30;14.23;;;12.50;99.90;;;;;;5048096;28;20060;-67
2022/09/11 05:55:48;;;;;;;21.70;15.43;;;12.50;99.90;;;;;;5046027;28;20043;-67
2022/09/11 05:58:17;;;;;;;21.60;15.75;;;12.50;99.90;;;;;;5031791;28;20051;-67
2022/09/11 06:00:45;;;;;;;23.42;16.45;;;12.50;99.90;;;;;;5046069;28;20041;-68
2022/09/11 06:03:16;;;;;;;25.60;16.13;;;12.60;99.90;;;;;;5049973;28;20493;-68
2022/09/11 06:05:42;;;;;;;22.83;15.55;;;12.60;99.90;;;;;;5045597;28;20120;-68
2022/09/11 06:08:09;;;;;;;21.58;15.02;;;12.60;99.90;;;;;;5050374;28;20041;-67
2022/09/11 06:10:54;;;;;;;22.98;15.80;;;12.60;99.90;;;;;;5047240;28;20053;-67
2022/09/11 06:13:21;;;;;;;24.88;15.27;;;12.70;99.90;;;;;;5030242;28;20041;-67
2022/09/11 06:15:47;;;;;;;19.80;14.98;;;12.70;99.90;;;;;;5044967;28;20056;-67
2022/09/11 06:18:14;;;;;;;24.65;16.70;;;12.70;99.90;;;;;;5045493;28;20041;-68
2022/09/11 06:20:40;;;;;;;22.20;15.40;;;12.80;99.90;;;;;;5046506;28;20060;-67
2022/09/11 06:23:08;;;;;;;21.60;15.10;;;12.80;99.90;;;;;;5045859;28;20450;-67
2022/09/11 06:25:34;;;;;;;27.08;16.90;;;12.90;99.90;;;;;;5048817;28;20505;-67
2022/09/11 06:28:00;;;;;;;21.48;15.60;;;12.90;99.90;;;;;;5040551;28;20037;-68
2022/09/11 06:30:26;;;;;;;24.45;16.42;;;12.90;99.90;;;;;;5042301;28;20045;-67
2022/09/11 06:32:55;;;;;;;23.60;16.42;;;13.00;99.90;;;;;;5037168;28;20048;-67
2022/09/11 06:35:22;;;;;;;27.58;18.00;;;13.00;99.90;;;;;;5031620;28;20639;-67
2022/09/11 06:37:48;;;;;;;28.65;19.00;;;13.10;99.90;;;;;;5042899;28;20111;-67
2022/09/11 06:40:14;;;;;;;26.05;18.02;;;13.10;99.90;;;;;;5039572;28;20037;-67
2022/09/11 06:42:40;;;;;;;24.27;17.35;;;13.20;99.90;;;;;;5040860;28;20464;-67
2022/09/11 06:45:07;;;;;;;28.58;19.00;;;13.30;99.90;;;;;;5039612;28;20044;-67
2022/09/11 06:47:33;;;;;;;28.35;18.70;;;13.30;99.90;;;;;;5041543;28;20557;-67
2022/09/11 06:49:59;;;;;;;32.70;19.75;;;13.40;99.90;;;;;;5031528;28;20051;-67
2022/09/11 06:52:24;;;;;;;28.60;19.48;;;13.50;99.90;;;;;;5042542;28;20033;-66
2022/09/11 06:54:50;;;;;;;27.90;19.25;;;13.60;99.90;;;;;;5044355;28;20059;-68
2022/09/11 06:57:16;;;;;;;33.03;21.05;;;13.70;99.90;;;;;;5047990;28;20044;-68
2022/09/11 06:59:42;;;;;;;31.95;20.17;;;13.70;99.90;;;;;;5044866;28;20137;-68
2022/09/11 07:02:11;;;;;;;28.95;18.48;;;13.80;99.90;;;;;;5040536;28;20387;-67
2022/09/11 07:04:36;;;;;;;33.65;20.85;;;13.90;99.90;;;;;;5025683;28;20037;-67
2022/09/11 07:07:03;;;;;;;34.92;20.90;;;14.00;99.90;;;;;;5039642;28;20120;-67
2022/09/11 07:09:29;;;;;;;30.02;19.38;;;14.10;99.90;;;;;;5035952;28;20087;-67
2022/09/11 07:11:55;;;;;;;28.02;19.05;;;14.20;99.90;;;;;;5045862;28;20050;-68
2022/09/11 07:14:22;;;;;;;31.08;19.40;;;14.20;99.90;;;;;;5039735;28;20112;-68
2022/09/11 07:16:49;;;;;;;33.88;21.25;;;14.40;99.90;;;;;;5039716;28;20273;-68
2022/09/11 07:19:17;;;;;;;34.28;21.58;;;14.50;99.90;;;;;;5047487;28;20063;-66
2022/09/11 07:21:43;;;;;;;34.72;20.30;;;14.60;99.90;;;;;;5045624;28;20064;-68
2022/09/11 07:24:09;;;;;;;34.65;20.65;;;14.70;99.90;;;;;;5040863;28;20063;-67
2022/09/11 07:26:35;;;;;;;32.22;21.50;;;14.80;99.90;;;;;;5041997;28;20043;-68
2022/09/11 07:29:01;;;;;;;31.52;20.67;;;15.00;99.90;;;;;;5040080;28;20041;-68
2022/09/11 07:31:34;;;;;;;33.35;21.80;;;15.20;99.90;;;;;;5041145;28;20457;-67
2022/09/11 07:34:03;;;;;;;31.63;20.38;;;15.60;99.90;;;;;;5037860;28;20047;-68
2022/09/11 07:36:31;;;;;;;31.92;21.58;;;15.80;99.90;;;;;;5041500;28;20209;-67
2022/09/11 07:38:58;;;;;;;34.90;21.10;;;16.00;99.90;;;;;;5019190;28;20072;-68
2022/09/11 07:41:25;;;;;;;41.63;23.58;;;16.20;99.90;;;;;;5041723;28;20048;-68
2022/09/11 07:43:56;;;;;;;37.92;24.92;;;16.30;99.90;;;;;;5035185;28;20045;-68
2022/09/11 07:46:26;;;;;;;31.83;22.42;;;16.50;99.90;;;;;;5036627;28;20073;-68
2022/09/11 07:48:53;;;;;;;32.15;21.88;;;16.60;99.90;;;;;;5031764;28;21507;-68
2022/09/11 07:51:19;;;;;;;29.15;20.38;;;16.90;99.90;;;;;;5051587;28;20498;-68
2022/09/11 07:53:50;;;;;;;30.67;20.33;;;17.20;99.90;;;;;;5022832;28;20045;-68
2022/09/11 07:56:22;;;;;;;24.50;17.60;;;17.40;99.90;;;;;;5042932;28;20048;-68
2022/09/11 07:58:48;;;;;;;23.05;17.15;;;17.40;99.90;;;;;;5038077;28;20098;-68
2022/09/11 08:01:16;;;;;;;24.77;18.02;;;17.50;99.90;;;;;;5056032;28;20049;-67
2022/09/11 08:03:43;;;;;;;23.80;17.85;;;17.60;99.90;;;;;;5040700;28;20075;-68
2022/09/11 08:06:15;;;;;;;19.90;16.67;;;17.70;99.90;;;;;;5037551;28;20064;-68
2022/09/11 08:08:42;;;;;;;20.70;15.57;;;17.80;99.90;;;;;;5038089;28;20461;-68
2022/09/11 08:11:16;;;;;;;23.48;16.08;;;17.80;99.90;;;;;;5037487;28;20037;-68
2022/09/11 08:13:46;;;;;;;24.38;15.68;;;17.70;99.90;;;;;;5019065;28;20778;-67
2022/09/11 08:16:11;;;;;;;19.65;15.25;;;17.70;99.90;;;;;;5038357;28;20272;-68
2022/09/11 08:18:37;;;;;;;21.17;16.38;;;17.70;99.90;;;;;;5037810;28;20513;-68
2022/09/11 08:21:07;;;;;;;20.55;15.27;;;17.80;99.90;;;;;;5052993;28;20044;-69
2022/09/11 08:23:33;;;;;;;19.05;15.20;;;17.90;99.90;;;;;;5036704;28;20034;-68
2022/09/11 08:26:11;;;;;;;20.55;15.07;;;18.10;99.90;;;;;;5040162;28;20614;-68
2022/09/11 08:28:38;;;;;;;21.17;15.18;;;18.30;99.90;;;;;;5040723;28;20037;-68
2022/09/11 08:31:05;;;;;;;19.50;13.98;;;18.40;99.90;;;;;;5036632;28;20064;-68
2022/09/11 08:33:34;;;;;;;21.20;15.93;;;18.50;99.90;;;;;;5038842;28;20045;-68
2022/09/11 08:36:04;;;;;;;;;;;18.60;99.90;;;;;;5047738;28;20095;-68
2022/09/11 08:38:30;;;;;;;22.40;16.48;;;18.70;99.90;;;;;;5046348;28;19971;-68
2022/09/11 08:40:58;;;;;;;23.25;16.80;;;18.70;99.90;;;;;;5044585;28;20119;-69
2022/09/11 08:43:31;;;;;;;22.80;15.70;;;18.70;99.90;;;;;;5038586;28;20402;-68
2022/09/11 08:46:08;;;;;;;18.55;15.23;;;18.50;99.90;;;;;;5047380;28;20045;-68
2022/09/11 08:48:44;;;;;;;23.88;16.33;;;18.50;99.90;;;;;;5046364;28;20041;-68
2022/09/11 08:51:15;;;;;;;21.95;16.75;;;18.50;99.90;;;;;;5047329;28;20049;-68
2022/09/11 08:53:41;;;;;;;21.52;16.45;;;18.50;99.90;;;;;;5047918;28;20048;-68
2022/09/11 08:56:14;;;;;;;22.98;16.65;;;18.60;99.90;;;;;;5029583;28;20048;-68
2022/09/11 08:58:58;;;;;;;22.77;15.57;;;18.50;99.90;;;;;;5044364;28;20516;-68
2022/09/11 09:01:59;;;;;;;21.15;15.07;;;18.40;99.90;;;;;;5037518;28;20043;-68
2022/09/11 09:04:40;;;;;;;21.63;15.15;;;18.30;99.90;;;;;;5031981;28;21302;-68
2022/09/11 09:07:18;;;;;;;20.90;15.20;;;18.30;99.90;;;;;;5040420;28;20433;-68
2022/09/11 09:09:54;;;;;;;16.88;14.23;;;18.50;99.90;;;;;;5037052;28;20037;-68
2022/09/11 09:12:32;;;;;;;19.30;15.80;;;18.70;99.90;;;;;;5037759;28;20045;-68
2022/09/11 09:15:15;;;;;;;19.42;15.30;;;18.90;99.90;;;;;;5015100;28;20179;-68
2022/09/11 09:17:51;;;;;;;24.08;17.27;;;19.00;99.90;;;;;;5037866;28;20037;-68
2022/09/11 09:20:21;;;;;;;23.35;17.05;;;19.10;99.90;;;;;;5041776;28;20456;-68
2022/09/11 09:22:53;;;;;;;19.35;15.65;;;19.20;99.90;;;;;;5022456;28;20071;-68
2022/09/11 09:25:24;;;;;;;22.27;17.08;;;19.20;99.90;;;;;;5036737;28;20685;-68
2022/09/11 09:27:53;;;;;;;20.42;16.30;;;19.20;99.90;;;;;;5022806;28;20044;-67
2022/09/11 09:30:23;;;;;;;19.50;15.00;;;19.20;99.90;;;;;;5038120;28;20541;-70
2022/09/11 09:32:54;;;;;;;19.00;14.65;;;19.20;99.90;;;;;;5042900;28;20112;-71
2022/09/11 09:35:40;;;;;;;15.95;13.00;;;19.40;99.90;;;;;;5038444;28;20072;-71
2022/09/11 09:38:14;;;;;;;18.58;14.20;;;19.60;99.90;;;;;;5042901;28;20552;-69
2022/09/11 09:41:02;;;;;;;20.27;14.75;;;19.70;99.90;;;;;;5046238;28;20590;-69
2022/09/11 09:44:16;;;;;;;18.05;13.70;;;19.70;99.90;;;;;;5042163;28;20045;-70
2022/09/11 09:46:49;;;;;;;16.48;12.48;;;19.80;99.90;;;;;;4993165;28;20046;-69
2022/09/11 09:49:26;;;;;;;13.73;12.32;;;20.00;99.90;;;;;;5042367;28;20045;-70
2022/09/11 09:51:55;;;;;;;12.10;9.70;;;20.20;99.90;;;;;;5046063;28;20091;-71
2022/09/11 09:54:25;;;;;;;10.32;9.18;;;20.30;99.90;;;;;;5025388;28;20087;-70
2022/09/11 09:57:04;;;;;;;10.40;8.57;;;20.40;99.90;;;;;;5037666;28;20540;-70
2022/09/11 09:59:56;;;;;;;13.48;9.00;;;20.50;99.90;;;;;;5010193;28;20041;-70
2022/09/11 10:02:48;;;;;;;9.90;7.47;;;20.70;99.90;;;;;;5044408;28;20052;-70
2022/09/11 10:05:39;;;;;;;9.98;7.28;;;20.60;99.90;;;;;;5040042;28;20033;-71
2022/09/11 10:08:24;;;;;;;11.17;6.40;;;20.70;99.90;;;;;;5035123;28;20136;-70
2022/09/11 10:10:56;;;;;;;10.15;6.40;;;20.80;99.90;;;;;;5039579;28;20124;-70
2022/09/11 10:13:24;;;;;;;8.80;6.15;;;20.80;99.90;;;;;;5041803;28;20037;-70
2022/09/11 10:16:02;;;;;;;5.95;4.88;;;20.80;99.90;;;;;;5011136;28;20114;-70
2022/09/11 10:18:31;;;;;;;6.93;5.65;;;20.90;99.90;;;;;;5027738;28;20029;-70
2022/09/11 10:21:28;;;;;;;7.47;5.25;;;21.00;99.90;;;;;;5037880;28;20057;-70
2022/09/11 10:24:01;;;;;;;6.18;4.95;;;21.10;99.90;;;;;;5033769;28;20100;-70
2022/09/11 10:26:44;;;;;;;5.82;4.03;;;20.90;99.90;;;;;;5020363;28;20057;-70
2022/09/11 10:29:10;;;;;;;7.68;4.80;;;20.80;99.90;;;;;;5036023;28;20037;-70
2022/09/11 10:31:39;;;;;;;6.90;5.50;;;20.80;99.90;;;;;;5029710;28;20126;-70
2022/09/11 10:34:06;;;;;;;6.88;5.32;;;21.00;99.90;;;;;;5020789;28;20061;-70
2022/09/11 10:36:33;;;;;;;7.10;4.63;;;21.00;99.90;;;;;;5008593;28;20048;-70
2022/09/11 10:39:00;;;;;;;7.25;4.80;;;21.10;99.90;;;;;;5045995;28;20049;-70
2022/09/11 10:41:31;;;;;;;9.48;4.97;;;21.30;99.90;;;;;;5049523;28;20045;-70
2022/09/11 10:44:00;;;;;;;5.40;3.78;;;21.30;99.90;;;;;;5046332;28;20048;-70
2022/09/11 10:46:31;;;;;;;6.22;3.97;;;21.40;99.90;;;;;;5042401;28;20665;-70
2022/09/11 10:49:08;;;;;;;4.70;3.53;;;21.70;99.90;;;;;;5047825;28;20094;-69
2022/09/11 10:51:39;;;;;;;5.50;4.13;;;21.80;99.90;;;;;;5048639;28;20041;-70
2022/09/11 10:54:19;;;;;;;5.13;3.70;;;21.90;99.90;;;;;;5034244;28;20460;-70
2022/09/11 10:56:59;;;;;;;5.05;3.22;;;22.00;99.90;;;;;;5019737;28;20044;-69
2022/09/11 11:00:01;;;;;;;5.20;3.42;;;22.10;99.90;;;;;;5043019;28;20041;-69
2022/09/11 11:03:15;;;;;;;4.90;3.58;;;22.30;99.90;;;;;;4988734;28;20060;-69
2022/09/11 11:06:02;;;;;;;4.93;2.90;;;22.40;99.90;;;;;;4980214;28;20811;-70
2022/09/11 11:08:35;;;;;;;7.78;2.88;;;22.40;99.90;;;;;;5039498;28;20037;-69
2022/09/11 11:11:02;;;;;;;;;;;22.40;99.90;;;;;;5039101;28;20640;-70
2022/09/11 11:13:56;;;;;;;6.18;3.20;;;22.40;99.90;;;;;;5026374;28;20686;-69
2022/09/11 11:17:17;;;;;;;4.35;3.08;;;22.50;99.90;;;;;;5042145;28;20091;-70
2022/09/11 11:20:15;;;;;;;7.07;3.17;;;22.40;99.90;;;;;;5023804;28;20121;-70
2022/09/11 11:22:57;;;;;;;4.38;2.42;;;22.10;99.90;;;;;;5037434;28;20073;-70
2022/09/11 11:25:35;;;;;;;3.78;3.00;;;22.10;99.90;;;;;;5042452;28;20036;-71
2022/09/11 11:28:33;;;;;;;6.78;2.70;;;21.90;99.90;;;;;;5039733;28;20112;-69
2022/09/11 11:31:01;;;;;;;3.22;2.78;;;21.90;99.90;;;;;;5041655;28;20077;-72
2022/09/11 11:33:44;;;;;;;3.65;2.58;;;22.10;99.90;;;;;;5057549;28;20394;-70
2022/09/11 11:36:25;;;;;;;5.07;2.80;;;22.20;99.90;;;;;;5043243;28;20139;-71
2022/09/11 11:38:59;;;;;;;4.85;2.80;;;22.40;99.90;;;;;;5056258;28;20042;-71
2022/09/11 11:41:45;;;;;;;5.30;3.03;;;22.60;99.90;;;;;;5039691;28;20041;-69
2022/09/11 11:44:17;;;;;;;5.25;2.85;;;22.70;99.90;;;;;;5020948;28;20049;-69
2022/09/11 11:46:48;;;;;;;5.28;2.70;;;23.00;99.90;;;;;;5034526;28;20106;-70
2022/09/11 11:49:32;;;;;;;5.97;3.00;;;23.00;99.90;;;;;;5018037;28;20067;-69
2022/09/11 11:52:04;;;;;;;4.05;2.42;;;23.10;99.90;;;;;;5035953;28;20069;-71
2022/09/11 11:54:56;;;;;;;3.85;2.60;;;23.10;99.90;;;;;;5040613;28;20040;-70
2022/09/11 11:57:28;;;;;;;4.22;2.38;;;23.20;99.90;;;;;;5008592;28;20508;-70
2022/09/11 12:00:09;;;;;;;2.42;2.08;;;23.30;99.90;;;;;;5035692;28;20446;-70
2022/09/11 12:02:55;;;;;;;3.33;1.90;;;23.40;99.90;;;;;;5037661;28;20083;-70
2022/09/11 12:05:29;;;;;;;3.00;2.20;;;23.50;99.90;;;;;;5021224;28;20036;-70
2022/09/11 12:07:55;;;;;;;4.00;2.35;;;23.70;99.90;;;;;;5038549;28;20056;-69
2022/09/11 12:10:34;;;;;;;5.13;2.83;;;23.90;99.90;;;;;;5040909;28;20442;-69
2022/09/11 12:13:05;;;;;;;4.25;2.63;;;23.80;99.90;;;;;;5019709;28;20049;-70
2022/09/11 12:15:33;;;;;;;3.78;2.25;;;23.50;99.90;;;;;;5039090;28;20045;-70
2022/09/11 12:18:11;;;;;;;3.55;2.22;;;23.40;99.90;;;;;;5036769;28;20080;-70
2022/09/11 12:20:42;;;;;;;4.53;2.25;;;23.10;99.90;;;;;;5041085;28;20095;-70
2022/09/11 12:23:29;;;;;;;4.03;2.90;;;23.00;99.90;;;;;;5017781;28;20581;-70
2022/09/11 12:26:07;;;;;;;2.92;2.42;;;22.80;99.90;;;;;;5012907;28;20068;-70
2022/09/11 12:28:36;;;;;;;2.67;2.22;;;22.90;99.90;;;;;;5017007;28;20567;-70
2022/09/11 12:31:10;;;;;;;6.72;2.53;;;23.00;99.90;;;;;;5037494;28;20120;-70
2022/09/11 12:33:43;;;;;;;4.00;1.95;;;22.80;99.90;;;;;;5043914;28;20042;-70
2022/09/11 12:36:15;;;;;;;2.42;1.98;;;22.70;99.90;;;;;;5014244;28;20141;-70
2022/09/11 12:38:58;;;;;;;3.55;2.17;;;22.60;99.90;;;;;;5034564;28;20052;-69
2022/09/11 12:41:25;;;;;;;;;;;22.50;99.90;;;;;;5033878;28;20518;-69
2022/09/11 12:43:53;;;;;;;3.53;2.00;;;22.40;99.90;;;;;;5032502;28;20075;-69
2022/09/11 12:46:22;;;;;;;3.38;2.17;;;22.30;99.90;;;;;;5032189;28;20375;-69
2022/09/11 12:48:54;;;;;;;4.60;2.33;;;22.20;99.90;;;;;;5033889;28;20366;-69
2022/09/11 12:51:29;;;;;;;5.68;2.60;;;22.10;99.90;;;;;;5032038;28;20514;-69
2022/09/11 12:54:01;;;;;;;5.68;2.15;;;22.00;99.90;;;;;;5030825;28;20067;-69
2022/09/11 12:56:33;;;;;;;3.47;2.50;;;21.90;99.90;;;;;;5031163;28;20064;-70
2022/09/11 12:59:06;;;;;;;4.18;2.35;;;21.70;99.90;;;;;;5031471;28;20072;-70
2022/09/11 13:01:40;;;;;;;3.60;2.15;;;21.60;99.90;;;;;;5019710;28;20051;-69